sensor_id;sensor_type;location;lat;lon;timestamp;pressure;altitude;pressure_sealevel;temperature;humidity
84653;BME280;74883;48.882;2.092;2024-03-08T00:00:18;100720.22;;;6.59;86.00
84653;BME280;74883;48.882;2.092;2024-03-08T00:02:46;100719.28;;;6.61;86.25
84653;BME280;74883;48.882;2.092;2024-03-08T00:05:13;100709.81;;;6.60;86.54
84653;BME280;74883;48.882;2.092;2024-03-08T00:07:39;100712.56;;;6.57;86.05
84653;BME280;74883;48.882;2.092;2024-03-08T00:10:06;100710.97;;;6.53;87.66
84653;BME280;74883;48.882;2.092;2024-03-08T00:12:32;100711.22;;;6.47;81.48
84653;BME280;74883;48.882;2.092;2024-03-08T00:14:57;100702.72;;;6.45;85.77
84653;BME280;74883;48.882;2.092;2024-03-08T00:17:23;100708.91;;;6.41;86.39
84653;BME280;74883;48.882;2.092;2024-03-08T00:19:49;100696.88;;;6.40;87.72
84653;BME280;74883;48.882;2.092;2024-03-08T00:22:15;100701.09;;;6.43;87.09
84653;BME280;74883;48.882;2.092;2024-03-08T00:24:41;100696.03;;;6.40;86.55
84653;BME280;74883;48.882;2.092;2024-03-08T00:27:07;100694.50;;;6.36;86.55
84653;BME280;74883;48.882;2.092;2024-03-08T00:29:34;100690.03;;;6.39;87.65
84653;BME280;74883;48.882;2.092;2024-03-08T00:31:59;100683.91;;;6.42;86.75
84653;BME280;74883;48.882;2.092;2024-03-08T00:34:25;100678.09;;;6.37;87.34
84653;BME280;74883;48.882;2.092;2024-03-08T00:36:50;100680.06;;;6.30;87.48
84653;BME280;74883;48.882;2.092;2024-03-08T00:39:17;100680.03;;;6.32;87.67
84653;BME280;74883;48.882;2.092;2024-03-08T00:41:45;100670.47;;;6.34;87.77
84653;BME280;74883;48.882;2.092;2024-03-08T00:44:10;100661.06;;;6.32;86.32
84653;BME280;74883;48.882;2.092;2024-03-08T00:46:35;100666.34;;;6.29;86.29
84653;BME280;74883;48.882;2.092;2024-03-08T00:49:01;100661.91;;;6.33;87.41
84653;BME280;74883;48.882;2.092;2024-03-08T00:51:26;100666.47;;;6.26;84.54
84653;BME280;74883;48.882;2.092;2024-03-08T00:53:51;100653.69;;;6.23;85.95
84653;BME280;74883;48.882;2.092;2024-03-08T00:56:17;100650.25;;;6.23;87.09
84653;BME280;74883;48.882;2.092;2024-03-08T00:58:42;100651.22;;;6.20;86.05
84653;BME280;74883;48.882;2.092;2024-03-08T01:01:08;100645.22;;;6.20;87.52
84653;BME280;74883;48.882;2.092;2024-03-08T01:03:35;100642.56;;;6.21;87.45
84653;BME280;74883;48.882;2.092;2024-03-08T01:06:01;100640.06;;;6.20;86.41
84653;BME280;74883;48.882;2.092;2024-03-08T01:08:26;100627.47;;;6.12;86.32
84653;BME280;74883;48.882;2.092;2024-03-08T01:10:52;100626.63;;;6.12;87.77
84653;BME280;74883;48.882;2.092;2024-03-08T01:13:18;100620.75;;;6.08;87.52
84653;BME280;74883;48.882;2.092;2024-03-08T01:15:44;100617.50;;;6.03;85.79
84653;BME280;74883;48.882;2.092;2024-03-08T01:18:10;100620.09;;;6.03;86.92
84653;BME280;74883;48.882;2.092;2024-03-08T01:20:35;100614.78;;;6.06;87.72
84653;BME280;74883;48.882;2.092;2024-03-08T01:23:01;100613.25;;;6.02;87.07
84653;BME280;74883;48.882;2.092;2024-03-08T01:25:26;100609.88;;;6.00;87.71
84653;BME280;74883;48.882;2.092;2024-03-08T01:27:52;100606.47;;;6.00;86.52
84653;BME280;74883;48.882;2.092;2024-03-08T01:30:19;100602.91;;;6.02;87.86
84653;BME280;74883;48.882;2.092;2024-03-08T01:32:44;100597.72;;;6.04;87.44
84653;BME280;74883;48.882;2.092;2024-03-08T01:35:10;100596.31;;;5.95;85.00
84653;BME280;74883;48.882;2.092;2024-03-08T01:37:35;100589.38;;;5.97;87.31
84653;BME280;74883;48.882;2.092;2024-03-08T01:40:01;100581.88;;;5.91;86.34
84653;BME280;74883;48.882;2.092;2024-03-08T01:42:26;100588.09;;;5.86;86.65
84653;BME280;74883;48.882;2.092;2024-03-08T01:44:51;100578.97;;;5.77;87.48
84653;BME280;74883;48.882;2.092;2024-03-08T01:47:17;100570.72;;;5.69;87.13
84653;BME280;74883;48.882;2.092;2024-03-08T01:49:44;100568.53;;;5.58;87.01
84653;BME280;74883;48.882;2.092;2024-03-08T01:52:09;100568.16;;;5.46;85.88
84653;BME280;74883;48.882;2.092;2024-03-08T01:54:36;100559.81;;;5.39;86.45
84653;BME280;74883;48.882;2.092;2024-03-08T01:57:02;100563.59;;;5.31;86.08
84653;BME280;74883;48.882;2.092;2024-03-08T01:59:27;100559.56;;;5.24;86.18
84653;BME280;74883;48.882;2.092;2024-03-08T02:02:00;100556.13;;;5.23;87.63
84653;BME280;74883;48.882;2.092;2024-03-08T02:04:26;100557.09;;;5.21;87.48
84653;BME280;74883;48.882;2.092;2024-03-08T02:06:52;100550.38;;;5.17;88.68
84653;BME280;74883;48.882;2.092;2024-03-08T02:09:17;100538.53;;;5.13;88.72
84653;BME280;74883;48.882;2.092;2024-03-08T02:11:43;100543.72;;;5.11;88.98
84653;BME280;74883;48.882;2.092;2024-03-08T02:14:08;100531.75;;;5.10;88.90
84653;BME280;74883;48.882;2.092;2024-03-08T02:16:34;100532.75;;;5.06;88.91
84653;BME280;74883;48.882;2.092;2024-03-08T02:19:00;100527.72;;;5.03;89.21
84653;BME280;74883;48.882;2.092;2024-03-08T02:21:25;100531.25;;;5.01;89.19
84653;BME280;74883;48.882;2.092;2024-03-08T02:23:51;100518.47;;;4.98;89.79
84653;BME280;74883;48.882;2.092;2024-03-08T02:26:17;100521.97;;;4.97;89.11
84653;BME280;74883;48.882;2.092;2024-03-08T02:28:44;100511.22;;;4.85;90.22
84653;BME280;74883;48.882;2.092;2024-03-08T02:31:10;100513.22;;;4.77;90.40
84653;BME280;74883;48.882;2.092;2024-03-08T02:33:35;100515.03;;;4.74;90.46
84653;BME280;74883;48.882;2.092;2024-03-08T02:36:01;100506.44;;;4.75;90.53
84653;BME280;74883;48.882;2.092;2024-03-08T02:38:26;100497.84;;;4.76;89.92
84653;BME280;74883;48.882;2.092;2024-03-08T02:40:53;100500.56;;;4.71;89.75
84653;BME280;74883;48.882;2.092;2024-03-08T02:43:19;100498.16;;;4.67;89.61
84653;BME280;74883;48.882;2.092;2024-03-08T02:45:45;100492.28;;;4.63;90.45
84653;BME280;74883;48.882;2.092;2024-03-08T02:48:11;100475.03;;;4.65;91.44
84653;BME280;74883;48.882;2.092;2024-03-08T02:50:37;100476.84;;;4.63;90.79
84653;BME280;74883;48.882;2.092;2024-03-08T02:53:05;100466.59;;;4.62;91.11
84653;BME280;74883;48.882;2.092;2024-03-08T02:55:31;100464.03;;;4.62;91.22
84653;BME280;74883;48.882;2.092;2024-03-08T02:57:56;100449.63;;;4.56;90.97
84653;BME280;74883;48.882;2.092;2024-03-08T03:00:22;100447.97;;;4.55;91.28
84653;BME280;74883;48.882;2.092;2024-03-08T03:02:49;100437.78;;;4.52;91.46
84653;BME280;74883;48.882;2.092;2024-03-08T03:05:21;100433.47;;;4.53;91.09
84653;BME280;74883;48.882;2.092;2024-03-08T03:07:46;100426.72;;;4.50;91.54
84653;BME280;74883;48.882;2.092;2024-03-08T03:10:13;100425.94;;;4.48;90.91
84653;BME280;74883;48.882;2.092;2024-03-08T03:12:42;100423.53;;;4.44;91.24
84653;BME280;74883;48.882;2.092;2024-03-08T03:15:08;100429.66;;;4.40;91.78
84653;BME280;74883;48.882;2.092;2024-03-08T03:17:33;100427.06;;;4.41;91.74
84653;BME280;74883;48.882;2.092;2024-03-08T03:19:59;100427.09;;;4.40;92.51
84653;BME280;74883;48.882;2.092;2024-03-08T03:22:24;100428.94;;;4.36;92.36
84653;BME280;74883;48.882;2.092;2024-03-08T03:24:50;100428.31;;;4.30;92.14
84653;BME280;74883;48.882;2.092;2024-03-08T03:27:17;100417.19;;;4.29;91.27
84653;BME280;74883;48.882;2.092;2024-03-08T03:29:43;100406.13;;;4.27;91.43
84653;BME280;74883;48.882;2.092;2024-03-08T03:32:12;100398.41;;;4.27;90.84
84653;BME280;74883;48.882;2.092;2024-03-08T03:34:38;100401.06;;;4.24;91.50
84653;BME280;74883;48.882;2.092;2024-03-08T03:37:04;100397.50;;;4.28;91.81
84653;BME280;74883;48.882;2.092;2024-03-08T03:39:30;100393.19;;;4.29;92.11
84653;BME280;74883;48.882;2.092;2024-03-08T03:42:00;100400.75;;;4.33;92.39
84653;BME280;74883;48.882;2.092;2024-03-08T03:44:27;100399.06;;;4.32;92.19
84653;BME280;74883;48.882;2.092;2024-03-08T03:46:53;100400.69;;;4.35;92.82
84653;BME280;74883;48.882;2.092;2024-03-08T03:49:18;100400.75;;;4.33;91.98
84653;BME280;74883;48.882;2.092;2024-03-08T03:51:44;100394.16;;;4.26;91.58
84653;BME280;74883;48.882;2.092;2024-03-08T03:54:10;100396.03;;;4.21;92.27
84653;BME280;74883;48.882;2.092;2024-03-08T03:56:35;100397.72;;;4.22;92.50
84653;BME280;74883;48.882;2.092;2024-03-08T03:59:01;100394.53;;;4.15;92.05
84653;BME280;74883;48.882;2.092;2024-03-08T04:01:26;100400.66;;;4.11;91.08
84653;BME280;74883;48.882;2.092;2024-03-08T04:03:51;100401.41;;;4.15;92.56
84653;BME280;74883;48.882;2.092;2024-03-08T04:06:17;100400.47;;;4.17;92.34
84653;BME280;74883;48.882;2.092;2024-03-08T04:08:42;100399.25;;;4.03;93.20
84653;BME280;74883;48.882;2.092;2024-03-08T04:11:07;100393.69;;;3.66;93.79
84653;BME280;74883;48.882;2.092;2024-03-08T04:13:36;100396.97;;;3.44;93.08
84653;BME280;74883;48.882;2.092;2024-03-08T04:16:02;100391.84;;;3.44;93.09
84653;BME280;74883;48.882;2.092;2024-03-08T04:18:27;100387.66;;;3.42;93.15
84653;BME280;74883;48.882;2.092;2024-03-08T04:20:53;100382.19;;;3.26;94.27
84653;BME280;74883;48.882;2.092;2024-03-08T04:23:19;100379.00;;;3.18;94.13
84653;BME280;74883;48.882;2.092;2024-03-08T04:25:44;100370.13;;;3.28;94.32
84653;BME280;74883;48.882;2.092;2024-03-08T04:28:10;100369.69;;;3.16;94.12
84653;BME280;74883;48.882;2.092;2024-03-08T04:30:39;100372.88;;;2.96;95.08
84653;BME280;74883;48.882;2.092;2024-03-08T04:33:07;100363.47;;;2.95;94.87
84653;BME280;74883;48.882;2.092;2024-03-08T04:35:33;100366.59;;;2.78;95.71
84653;BME280;74883;48.882;2.092;2024-03-08T04:37:59;100372.03;;;2.68;96.48
84653;BME280;74883;48.882;2.092;2024-03-08T04:40:24;100370.72;;;2.55;96.09
84653;BME280;74883;48.882;2.092;2024-03-08T04:42:50;100369.09;;;2.52;96.87
84653;BME280;74883;48.882;2.092;2024-03-08T04:45:17;100366.31;;;2.60;96.77
84653;BME280;74883;48.882;2.092;2024-03-08T04:47:42;100353.78;;;2.78;96.56
84653;BME280;74883;48.882;2.092;2024-03-08T04:50:08;100347.41;;;2.90;96.22
84653;BME280;74883;48.882;2.092;2024-03-08T04:52:34;100347.16;;;2.70;95.91
84653;BME280;74883;48.882;2.092;2024-03-08T04:55:00;100352.91;;;2.50;95.98
84653;BME280;74883;48.882;2.092;2024-03-08T04:57:27;100351.09;;;2.54;95.95
84653;BME280;74883;48.882;2.092;2024-03-08T04:59:52;100344.28;;;2.53;96.09
84653;BME280;74883;48.882;2.092;2024-03-08T05:02:18;100345.72;;;2.34;96.57
84653;BME280;74883;48.882;2.092;2024-03-08T05:04:43;100349.41;;;2.24;97.09
84653;BME280;74883;48.882;2.092;2024-03-08T05:07:08;100340.09;;;2.21;97.75
84653;BME280;74883;48.882;2.092;2024-03-08T05:09:35;100337.56;;;2.20;97.03
84653;BME280;74883;48.882;2.092;2024-03-08T05:12:01;100330.81;;;2.17;97.03
84653;BME280;74883;48.882;2.092;2024-03-08T05:14:27;100332.88;;;2.04;98.18
84653;BME280;74883;48.882;2.092;2024-03-08T05:16:52;100329.50;;;2.04;97.71
84653;BME280;74883;48.882;2.092;2024-03-08T05:19:19;100327.72;;;2.06;97.57
84653;BME280;74883;48.882;2.092;2024-03-08T05:21:49;100326.94;;;2.02;97.91
84653;BME280;74883;48.882;2.092;2024-03-08T05:24:15;100328.69;;;2.02;97.86
84653;BME280;74883;48.882;2.092;2024-03-08T05:26:41;100326.94;;;2.02;98.00
84653;BME280;74883;48.882;2.092;2024-03-08T05:29:07;100327.22;;;1.93;98.06
84653;BME280;74883;48.882;2.092;2024-03-08T05:31:50;100326.50;;;1.88;97.72
84653;BME280;74883;48.882;2.092;2024-03-08T05:34:17;100328.25;;;1.86;98.19
84653;BME280;74883;48.882;2.092;2024-03-08T05:36:45;100326.66;;;1.82;97.72
84653;BME280;74883;48.882;2.092;2024-03-08T05:39:15;100325.81;;;1.83;98.27
84653;BME280;74883;48.882;2.092;2024-03-08T05:41:41;100328.25;;;1.86;97.74
84653;BME280;74883;48.882;2.092;2024-03-08T05:44:06;100331.06;;;1.79;97.83
84653;BME280;74883;48.882;2.092;2024-03-08T05:46:32;100327.78;;;1.74;98.39
84653;BME280;74883;48.882;2.092;2024-03-08T05:48:58;100330.94;;;1.82;98.01
84653;BME280;74883;48.882;2.092;2024-03-08T05:51:30;100331.00;;;1.80;98.54
84653;BME280;74883;48.882;2.092;2024-03-08T05:53:56;100333.69;;;1.76;99.03
84653;BME280;74883;48.882;2.092;2024-03-08T05:56:22;100321.38;;;1.88;99.23
84653;BME280;74883;48.882;2.092;2024-03-08T05:58:50;100328.38;;;1.83;98.08
84653;BME280;74883;48.882;2.092;2024-03-08T06:01:15;100329.34;;;1.78;97.34
84653;BME280;74883;48.882;2.092;2024-03-08T06:03:41;100315.72;;;1.77;97.62
84653;BME280;74883;48.882;2.092;2024-03-08T06:06:12;100320.16;;;1.71;97.70
84653;BME280;74883;48.882;2.092;2024-03-08T06:08:37;100311.47;;;1.76;97.06
84653;BME280;74883;48.882;2.092;2024-03-08T06:11:03;100313.81;;;1.84;97.57
84653;BME280;74883;48.882;2.092;2024-03-08T06:13:29;100303.50;;;1.87;97.85
84653;BME280;74883;48.882;2.092;2024-03-08T06:15:56;100308.78;;;1.81;96.87
84653;BME280;74883;48.882;2.092;2024-03-08T06:18:22;100301.31;;;1.73;96.67
84653;BME280;74883;48.882;2.092;2024-03-08T06:20:47;100294.84;;;1.60;98.04
84653;BME280;74883;48.882;2.092;2024-03-08T06:23:13;100292.38;;;1.57;97.72
84653;BME280;74883;48.882;2.092;2024-03-08T06:25:43;100297.56;;;1.54;98.10
84653;BME280;74883;48.882;2.092;2024-03-08T06:28:08;100300.00;;;1.59;98.51
84653;BME280;74883;48.882;2.092;2024-03-08T06:30:34;100292.19;;;1.63;98.51
84653;BME280;74883;48.882;2.092;2024-03-08T06:33:00;100294.94;;;1.57;98.19
84653;BME280;74883;48.882;2.092;2024-03-08T06:35:25;100290.78;;;1.53;99.20
84653;BME280;74883;48.882;2.092;2024-03-08T06:37:50;100286.28;;;1.61;98.82
84653;BME280;74883;48.882;2.092;2024-03-08T06:40:16;100282.13;;;1.57;98.49
84653;BME280;74883;48.882;2.092;2024-03-08T06:42:41;100285.59;;;1.55;98.74
84653;BME280;74883;48.882;2.092;2024-03-08T06:45:08;100284.63;;;1.59;98.54
84653;BME280;74883;48.882;2.092;2024-03-08T06:47:35;100277.88;;;1.56;98.92
84653;BME280;74883;48.882;2.092;2024-03-08T06:50:01;100282.06;;;1.59;98.75
84653;BME280;74883;48.882;2.092;2024-03-08T06:52:27;100284.44;;;1.66;99.36
84653;BME280;74883;48.882;2.092;2024-03-08T06:54:52;100274.09;;;1.69;99.07
84653;BME280;74883;48.882;2.092;2024-03-08T06:57:18;100280.16;;;1.96;99.03
84653;BME280;74883;48.882;2.092;2024-03-08T06:59:47;100272.50;;;2.24;99.42
84653;BME280;74883;48.882;2.092;2024-03-08T07:02:12;100265.84;;;2.46;98.96
84653;BME280;74883;48.882;2.092;2024-03-08T07:04:38;100260.06;;;2.67;98.76
84653;BME280;74883;48.882;2.092;2024-03-08T07:07:04;100251.06;;;2.80;98.97
84653;BME280;74883;48.882;2.092;2024-03-08T07:09:30;100259.09;;;2.96;98.12
84653;BME280;74883;48.882;2.092;2024-03-08T07:11:55;100259.53;;;3.08;98.27
84653;BME280;74883;48.882;2.092;2024-03-08T07:14:22;100259.31;;;3.14;98.03
84653;BME280;74883;48.882;2.092;2024-03-08T07:16:48;100253.78;;;3.26;97.72
84653;BME280;74883;48.882;2.092;2024-03-08T07:19:13;100257.03;;;3.31;97.99
84653;BME280;74883;48.882;2.092;2024-03-08T07:21:38;100255.84;;;3.40;97.24
84653;BME280;74883;48.882;2.092;2024-03-08T07:24:04;100259.78;;;3.50;97.07
84653;BME280;74883;48.882;2.092;2024-03-08T07:26:50;100250.19;;;3.55;96.52
84653;BME280;74883;48.882;2.092;2024-03-08T07:29:17;100249.88;;;3.64;96.51
84653;BME280;74883;48.882;2.092;2024-03-08T07:31:42;100256.34;;;3.74;96.11
84653;BME280;74883;48.882;2.092;2024-03-08T07:34:21;100250.06;;;3.81;95.73
84653;BME280;74883;48.882;2.092;2024-03-08T07:36:46;100252.31;;;3.90;96.13
84653;BME280;74883;48.882;2.092;2024-03-08T07:39:12;100252.09;;;3.96;95.96
84653;BME280;74883;48.882;2.092;2024-03-08T07:41:38;100256.06;;;4.05;95.95
84653;BME280;74883;48.882;2.092;2024-03-08T07:44:07;100253.19;;;4.12;95.23
84653;BME280;74883;48.882;2.092;2024-03-08T07:46:32;100247.53;;;4.26;94.91
84653;BME280;74883;48.882;2.092;2024-03-08T07:48:59;100247.13;;;4.37;94.30
84653;BME280;74883;48.882;2.092;2024-03-08T07:51:25;100243.28;;;4.47;94.32
84653;BME280;74883;48.882;2.092;2024-03-08T07:53:50;100243.63;;;4.59;93.58
84653;BME280;74883;48.882;2.092;2024-03-08T07:56:15;100244.81;;;4.72;93.84
84653;BME280;74883;48.882;2.092;2024-03-08T07:58:43;100243.09;;;4.73;90.90
84653;BME280;74883;48.882;2.092;2024-03-08T08:01:18;100240.63;;;4.70;90.91
84653;BME280;74883;48.882;2.092;2024-03-08T08:03:45;100229.38;;;4.72;91.99
84653;BME280;74883;48.882;2.092;2024-03-08T08:06:10;100232.72;;;4.74;92.59
84653;BME280;74883;48.882;2.092;2024-03-08T08:08:41;100229.94;;;4.79;92.56
84653;BME280;74883;48.882;2.092;2024-03-08T08:11:07;100221.41;;;4.78;91.18
84653;BME280;74883;48.882;2.092;2024-03-08T08:13:34;100228.28;;;4.78;91.10
84653;BME280;74883;48.882;2.092;2024-03-08T08:15:59;100222.47;;;4.95;92.20
84653;BME280;74883;48.882;2.092;2024-03-08T08:18:24;100220.19;;;5.07;91.77
84653;BME280;74883;48.882;2.092;2024-03-08T08:20:51;100217.94;;;5.20;90.59
84653;BME280;74883;48.882;2.092;2024-03-08T08:23:17;100214.41;;;5.22;90.48
84653;BME280;74883;48.882;2.092;2024-03-08T08:25:44;100205.50;;;5.29;91.10
84653;BME280;74883;48.882;2.092;2024-03-08T08:28:10;100199.78;;;5.41;91.05
84653;BME280;74883;48.882;2.092;2024-03-08T08:30:37;100199.88;;;5.40;85.32
84653;BME280;74883;48.882;2.092;2024-03-08T08:33:03;100195.47;;;5.42;87.14
84653;BME280;74883;48.882;2.092;2024-03-08T08:35:30;100195.22;;;5.48;86.71
84653;BME280;74883;48.882;2.092;2024-03-08T08:37:56;100183.97;;;5.69;88.65
84653;BME280;74883;48.882;2.092;2024-03-08T08:40:24;100194.91;;;5.93;88.40
84653;BME280;74883;48.882;2.092;2024-03-08T08:42:51;100187.03;;;6.14;89.18
84653;BME280;74883;48.882;2.092;2024-03-08T08:45:18;100186.44;;;6.26;87.34
84653;BME280;74883;48.882;2.092;2024-03-08T08:47:44;100179.78;;;6.40;88.06
84653;BME280;74883;48.882;2.092;2024-03-08T08:50:10;100178.88;;;6.41;82.02
84653;BME280;74883;48.882;2.092;2024-03-08T08:52:39;100171.38;;;6.53;86.67
84653;BME280;74883;48.882;2.092;2024-03-08T08:55:05;100167.28;;;6.49;83.60
84653;BME280;74883;48.882;2.092;2024-03-08T08:57:32;100173.91;;;6.55;87.01
84653;BME280;74883;48.882;2.092;2024-03-08T08:59:58;100158.72;;;6.66;87.78
84653;BME280;74883;48.882;2.092;2024-03-08T09:02:25;100156.22;;;6.64;86.83
84653;BME280;74883;48.882;2.092;2024-03-08T09:04:51;100160.97;;;6.72;87.38
84653;BME280;74883;48.882;2.092;2024-03-08T09:07:16;100154.91;;;6.73;88.38
84653;BME280;74883;48.882;2.092;2024-03-08T09:09:44;100152.47;;;6.70;87.06
84653;BME280;74883;48.882;2.092;2024-03-08T09:12:10;100140.16;;;6.75;85.55
84653;BME280;74883;48.882;2.092;2024-03-08T09:14:40;100141.38;;;6.85;88.17
84653;BME280;74883;48.882;2.092;2024-03-08T09:17:06;100136.44;;;6.80;87.04
84653;BME280;74883;48.882;2.092;2024-03-08T09:19:41;100132.09;;;6.81;81.42
84653;BME280;74883;48.882;2.092;2024-03-08T09:22:08;100132.56;;;6.89;87.33
84653;BME280;74883;48.882;2.092;2024-03-08T09:24:34;100124.47;;;6.95;82.58
84653;BME280;74883;48.882;2.092;2024-03-08T09:26:59;100123.81;;;6.91;82.23
84653;BME280;74883;48.882;2.092;2024-03-08T09:29:25;100117.66;;;6.94;82.89
84653;BME280;74883;48.882;2.092;2024-03-08T09:31:50;100119.69;;;7.05;84.12
84653;BME280;74883;48.882;2.092;2024-03-08T09:34:18;100112.53;;;7.10;84.00
84653;BME280;74883;48.882;2.092;2024-03-08T09:36:44;100113.22;;;7.13;83.52
84653;BME280;74883;48.882;2.092;2024-03-08T09:39:09;100098.03;;;7.23;84.48
84653;BME280;74883;48.882;2.092;2024-03-08T09:41:35;100105.66;;;7.41;88.66
84653;BME280;74883;48.882;2.092;2024-03-08T09:44:00;100106.09;;;7.49;87.05
84653;BME280;74883;48.882;2.092;2024-03-08T09:46:26;100100.91;;;7.49;82.98
84653;BME280;74883;48.882;2.092;2024-03-08T09:48:55;100082.97;;;7.62;84.23
84653;BME280;74883;48.882;2.092;2024-03-08T09:51:27;100083.16;;;7.75;86.83
84653;BME280;74883;48.882;2.092;2024-03-08T09:53:53;100080.72;;;7.71;83.24
84653;BME280;74883;48.882;2.092;2024-03-08T09:56:20;100080.56;;;7.75;82.83
84653;BME280;74883;48.882;2.092;2024-03-08T09:58:46;100071.63;;;7.80;79.89
84653;BME280;74883;48.882;2.092;2024-03-08T10:01:33;100072.78;;;7.90;70.61
84653;BME280;74883;48.882;2.092;2024-03-08T10:03:58;100061.09;;;7.99;76.30
84653;BME280;74883;48.882;2.092;2024-03-08T10:06:23;100056.78;;;8.13;80.08
84653;BME280;74883;48.882;2.092;2024-03-08T10:08:50;100059.78;;;8.21;80.79
84653;BME280;74883;48.882;2.092;2024-03-08T10:11:17;100049.03;;;8.29;79.48
84653;BME280;74883;48.882;2.092;2024-03-08T10:13:44;100050.50;;;8.33;83.53
84653;BME280;74883;48.882;2.092;2024-03-08T10:16:11;100050.53;;;8.47;83.56
84653;BME280;74883;48.882;2.092;2024-03-08T10:18:37;100046.81;;;8.51;83.63
84653;BME280;74883;48.882;2.092;2024-03-08T10:21:07;100042.75;;;8.47;79.58
84653;BME280;74883;48.882;2.092;2024-03-08T10:23:34;100036.13;;;8.57;83.42
84653;BME280;74883;48.882;2.092;2024-03-08T10:26:16;100035.38;;;8.69;83.03
84653;BME280;74883;48.882;2.092;2024-03-08T10:28:45;100029.72;;;8.63;77.33
84653;BME280;74883;48.882;2.092;2024-03-08T10:31:13;100025.84;;;8.70;82.46
84653;BME280;74883;48.882;2.092;2024-03-08T10:33:40;100034.09;;;8.76;82.17
84653;BME280;74883;48.882;2.092;2024-03-08T10:36:10;100025.41;;;8.91;82.23
84653;BME280;74883;48.882;2.092;2024-03-08T10:38:38;100026.31;;;8.90;79.06
84653;BME280;74883;48.882;2.092;2024-03-08T10:41:09;100028.81;;;8.92;80.37
84653;BME280;74883;48.882;2.092;2024-03-08T10:49:05;100017.63;;;9.05;72.50
84653;BME280;74883;48.882;2.092;2024-03-08T10:51:33;100006.31;;;9.06;81.03
84653;BME280;74883;48.882;2.092;2024-03-08T10:53:59;100016.88;;;9.03;80.80
84653;BME280;74883;48.882;2.092;2024-03-08T10:56:25;100010.41;;;9.11;77.78
84653;BME280;74883;48.882;2.092;2024-03-08T10:58:53;99992.75;;;9.16;73.40
84653;BME280;74883;48.882;2.092;2024-03-08T11:01:19;99994.41;;;9.31;80.85
84653;BME280;74883;48.882;2.092;2024-03-08T11:03:45;99996.25;;;9.43;81.03
84653;BME280;74883;48.882;2.092;2024-03-08T11:09:08;99992.03;;;9.54;80.20
84653;BME280;74883;48.882;2.092;2024-03-08T11:11:38;99982.41;;;9.69;81.18
84653;BME280;74883;48.882;2.092;2024-03-08T11:14:43;99995.84;;;9.75;72.55
84653;BME280;74883;48.882;2.092;2024-03-08T11:17:09;99984.16;;;9.95;82.11
84653;BME280;74883;48.882;2.092;2024-03-08T11:19:34;99980.22;;;10.02;79.77
84653;BME280;74883;48.882;2.092;2024-03-08T11:22:03;99971.22;;;10.20;79.68
84653;BME280;74883;48.882;2.092;2024-03-08T11:24:37;99970.94;;;10.37;74.58
84653;BME280;74883;48.882;2.092;2024-03-08T11:27:06;99963.03;;;10.52;75.73
84653;BME280;74883;48.882;2.092;2024-03-08T11:29:35;99970.00;;;10.64;78.36
84653;BME280;74883;48.882;2.092;2024-03-08T11:32:09;99968.72;;;10.82;75.61
84653;BME280;74883;48.882;2.092;2024-03-08T11:34:35;99959.63;;;11.00;74.33
84653;BME280;74883;48.882;2.092;2024-03-08T11:37:04;99956.25;;;11.10;78.73
84653;BME280;74883;48.882;2.092;2024-03-08T11:39:29;99953.50;;;11.25;78.31
84653;BME280;74883;48.882;2.092;2024-03-08T11:41:56;99941.22;;;11.50;76.81
84653;BME280;74883;48.882;2.092;2024-03-08T11:44:21;99940.66;;;11.70;76.98
84653;BME280;74883;48.882;2.092;2024-03-08T11:46:47;99943.88;;;11.85;80.65
84653;BME280;74883;48.882;2.092;2024-03-08T11:49:13;99932.53;;;11.86;80.93
84653;BME280;74883;48.882;2.092;2024-03-08T11:51:39;99930.81;;;11.74;81.20
84653;BME280;74883;48.882;2.092;2024-03-08T11:54:06;99924.56;;;11.76;77.92
84653;BME280;74883;48.882;2.092;2024-03-08T11:56:31;99927.19;;;11.88;79.48
84653;BME280;74883;48.882;2.092;2024-03-08T11:58:57;99919.16;;;11.91;76.63
84653;BME280;74883;48.882;2.092;2024-03-08T12:01:23;99913.47;;;11.85;67.81
84653;BME280;74883;48.882;2.092;2024-03-08T12:03:56;99904.31;;;12.15;75.79
84653;BME280;74883;48.882;2.092;2024-03-08T12:06:25;99907.38;;;12.53;77.54
84653;BME280;74883;48.882;2.092;2024-03-08T12:08:52;99907.63;;;12.72;75.66
84653;BME280;74883;48.882;2.092;2024-03-08T12:11:19;99899.50;;;13.08;76.63
84653;BME280;74883;48.882;2.092;2024-03-08T12:13:48;99898.81;;;13.70;72.07
84653;BME280;74883;48.882;2.092;2024-03-08T12:16:19;99898.44;;;13.95;72.35
84653;BME280;74883;48.882;2.092;2024-03-08T12:18:46;99888.94;;;14.24;73.99
84653;BME280;74883;48.882;2.092;2024-03-08T12:21:13;99875.09;;;13.41;74.93
84653;BME280;74883;48.882;2.092;2024-03-08T12:23:42;99877.53;;;12.24;72.07
84653;BME280;74883;48.882;2.092;2024-03-08T12:26:14;99875.81;;;11.90;72.50
84653;BME280;74883;48.882;2.092;2024-03-08T12:28:41;99877.47;;;12.90;73.88
84653;BME280;74883;48.882;2.092;2024-03-08T12:31:08;99864.09;;;13.79;71.37
84653;BME280;74883;48.882;2.092;2024-03-08T12:33:56;99866.66;;;14.20;58.25
84653;BME280;74883;48.882;2.092;2024-03-08T12:36:24;99860.72;;;13.47;71.54
84653;BME280;74883;48.882;2.092;2024-03-08T12:38:50;99857.09;;;12.84;74.85
84653;BME280;74883;48.882;2.092;2024-03-08T12:41:16;99861.28;;;12.20;74.21
84653;BME280;74883;48.882;2.092;2024-03-08T12:43:45;99864.97;;;12.07;75.98
84653;BME280;74883;48.882;2.092;2024-03-08T12:46:20;99855.03;;;12.45;75.22
84653;BME280;74883;48.882;2.092;2024-03-08T12:48:46;99844.91;;;13.69;73.69
84653;BME280;74883;48.882;2.092;2024-03-08T12:51:15;99841.94;;;14.64;73.31
84653;BME280;74883;48.882;2.092;2024-03-08T12:53:44;99840.22;;;14.14;65.71
84653;BME280;74883;48.882;2.092;2024-03-08T12:56:11;99841.22;;;12.76;72.82
84653;BME280;74883;48.882;2.092;2024-03-08T12:58:37;99839.16;;;12.26;78.75
84653;BME280;74883;48.882;2.092;2024-03-08T13:01:03;99834.75;;;11.93;78.92
84653;BME280;74883;48.882;2.092;2024-03-08T13:03:36;99830.13;;;11.74;72.90
84653;BME280;74883;48.882;2.092;2024-03-08T13:06:05;99823.97;;;11.75;79.40